createdAt,value
2018-11-12T15:37:50.440Z,6.83
2018-11-12T15:43:03.682Z,6.30
2018-11-12T15:45:36.344Z,6.30
2018-11-12T15:48:09.828Z,7.63
2018-11-12T15:50:41.423Z,6.47
2018-11-12T15:53:12.424Z,6.80
2018-11-12T15:55:45.681Z,7.47
2018-11-12T15:58:17.206Z,7.00
2018-11-12T16:00:47.898Z,6.50
2018-11-12T16:03:19.334Z,6.80
2018-11-12T16:05:54.109Z,6.00
2018-11-12T16:08:27.075Z,9.50
2018-11-12T16:10:58.764Z,6.20
2018-11-12T16:13:30.923Z,6.23
2018-11-12T16:16:03.644Z,11.87
2018-11-12T16:18:35.753Z,7.27
2018-11-12T16:21:07.699Z,8.10
2018-11-12T16:23:39.049Z,8.53
2018-11-12T16:26:11.461Z,8.00
2018-11-12T16:28:43.314Z,6.40
2018-11-12T16:31:14.803Z,8.00
2018-11-12T16:33:45.768Z,9.20
2018-11-12T16:36:17.687Z,12.27
2018-11-12T16:38:49.996Z,9.30
2018-11-12T16:41:23.665Z,9.43
2018-11-12T16:43:55.895Z,10.67
2018-11-12T16:46:28.063Z,9.40
2018-11-12T16:49:00.344Z,12.57
2018-11-12T16:51:32.605Z,7.60
2018-11-12T16:54:05.376Z,6.90
2018-11-12T16:56:38.406Z,6.67
2018-11-12T16:59:09.837Z,6.90
2018-11-12T17:01:46.737Z,7.13
2018-11-12T17:04:18.279Z,5.33
2018-11-12T17:06:49.863Z,6.70
2018-11-12T17:09:22.017Z,6.10
2018-11-12T17:11:55.342Z,6.17
2018-11-12T17:14:27.174Z,7.83
2018-11-12T17:16:59.607Z,6.87
2018-11-12T17:19:31.949Z,8.07
2018-11-12T17:22:04.627Z,7.33
2018-11-12T17:24:35.801Z,6.43
2018-11-12T17:27:07.557Z,7.17
2018-11-12T17:29:38.362Z,6.80
2018-11-12T17:32:10.252Z,6.17
2018-11-12T17:34:41.801Z,6.30
2018-11-12T17:37:13.872Z,6.77
2018-11-12T17:39:46.135Z,9.93
2018-11-12T17:42:17.645Z,8.87
2018-11-12T17:44:49.194Z,6.60
2018-11-12T17:47:20.545Z,6.37
2018-11-12T17:49:52.326Z,5.87
2018-11-12T17:52:23.817Z,6.40
2018-11-12T17:54:54.579Z,6.83
2018-11-12T17:57:26.791Z,6.07
2018-11-12T17:59:59.169Z,10.13
2018-11-12T18:02:37.694Z,7.33
2018-11-12T18:05:10.103Z,6.53
2018-11-12T18:07:42.831Z,6.93
2018-11-12T18:10:15.992Z,7.87
2018-11-12T18:12:47.534Z,7.47
2018-11-12T18:15:22.506Z,7.97
2018-11-12T18:17:54.846Z,6.93
2018-11-12T18:20:27.711Z,6.87
2018-11-12T18:22:59.594Z,5.70
2018-11-12T18:25:31.444Z,8.20
2018-11-12T18:28:04.398Z,5.80
2018-11-12T18:30:37.323Z,5.57
2018-11-12T18:33:09.009Z,5.50
2018-11-12T18:35:41.780Z,5.67
2018-11-12T18:38:13.987Z,5.13
2018-11-12T18:40:45.570Z,4.80
2018-11-12T18:43:17.943Z,5.53
2018-11-12T18:45:51.054Z,8.57
2018-11-12T18:48:22.982Z,8.43
2018-11-12T18:50:54.801Z,7.30
2018-11-12T18:53:27.338Z,5.13
2018-11-12T18:56:00.211Z,4.60
2018-11-12T18:58:32.448Z,9.50
2018-11-12T19:01:08.361Z,5.53
2018-11-12T19:03:55.497Z,7.90
2018-11-12T19:06:27.328Z,8.20
2018-11-12T19:08:58.813Z,11.13
2018-11-12T19:11:31.089Z,9.27
2018-11-12T19:14:02.996Z,7.63
2018-11-12T19:16:34.179Z,6.23
2018-11-12T19:19:06.094Z,6.77
2018-11-12T19:21:38.202Z,5.97
2018-11-12T19:24:10.191Z,5.87
2018-11-12T19:26:41.754Z,6.17
2018-11-12T19:29:13.090Z,5.70
2018-11-12T19:31:45.366Z,5.73
2018-11-12T19:34:18.444Z,6.53
2018-11-12T19:36:49.907Z,5.07
2018-11-12T19:39:21.609Z,5.83
2018-11-12T19:41:52.999Z,5.53
2018-11-12T19:44:24.599Z,5.60
2018-11-12T19:46:56.178Z,6.10
2018-11-12T19:49:28.308Z,5.83
2018-11-12T19:52:00.635Z,5.67
2018-11-12T19:54:32.204Z,5.07
2018-11-12T19:57:03.676Z,5.00
2018-11-12T19:59:35.142Z,6.07
2018-11-12T20:02:07.460Z,5.43
2018-11-12T20:04:39.080Z,4.83
2018-11-12T20:07:10.487Z,4.73
2018-11-12T20:09:41.825Z,4.73
2018-11-12T20:12:13.695Z,5.10
2018-11-12T20:14:45.030Z,5.10
2018-11-12T20:17:17.378Z,7.60
2018-11-12T20:19:49.418Z,7.37
2018-11-12T20:22:20.908Z,6.33
2018-11-12T20:24:52.325Z,6.73
2018-11-12T20:27:25.582Z,11.83
2018-11-12T20:29:57.853Z,10.10
2018-11-12T20:32:29.725Z,5.53
2018-11-12T20:35:03.851Z,6.30
2018-11-12T20:37:36.461Z,4.77
2018-11-12T20:40:10.454Z,5.23
2018-11-12T20:42:42.753Z,6.77
2018-11-12T20:45:15.503Z,5.70
2018-11-12T20:47:48.979Z,5.13
2018-11-12T20:50:21.695Z,6.80
2018-11-12T20:52:53.309Z,7.67
2018-11-12T20:55:25.447Z,6.07
2018-11-12T20:57:57.913Z,8.73
2018-11-12T21:00:30.529Z,4.20
2018-11-12T21:03:02.029Z,4.90
2018-11-12T21:05:34.269Z,5.03
2018-11-12T21:08:07.395Z,5.53
2018-11-12T21:10:40.657Z,5.03
2018-11-12T21:13:12.175Z,5.13
2018-11-12T21:15:44.656Z,4.63
2018-11-12T21:18:16.101Z,4.80
2018-11-12T21:20:47.489Z,7.60
2018-11-12T21:23:20.799Z,6.27
2018-11-12T21:25:52.797Z,5.40
2018-11-12T21:28:24.117Z,5.30
2018-11-12T21:30:55.938Z,5.23
2018-11-12T21:33:28.078Z,5.03
2018-11-12T21:36:01.344Z,5.70
2018-11-12T21:38:33.627Z,6.50
2018-11-12T21:41:04.918Z,6.13
2018-11-12T21:43:37.500Z,5.37
2018-11-12T21:46:09.783Z,5.10
2018-11-12T21:48:41.296Z,6.20
2018-11-12T21:51:12.645Z,5.33
2018-11-12T21:53:44.775Z,4.67
2018-11-12T21:56:16.843Z,5.60
2018-11-12T21:58:48.324Z,5.90
2018-11-12T22:01:19.880Z,5.60
2018-11-12T22:03:52.125Z,6.03
2018-11-12T22:06:23.852Z,6.23
2018-11-12T22:08:55.122Z,5.13
2018-11-12T22:11:26.854Z,5.87
2018-11-12T22:13:58.824Z,5.30
2018-11-12T22:16:29.971Z,5.07
2018-11-12T22:19:01.868Z,5.40
2018-11-12T22:21:34.620Z,4.80
2018-11-12T22:24:06.632Z,4.50
2018-11-12T22:26:37.887Z,4.00
2018-11-12T22:29:09.093Z,4.07
2018-11-12T22:31:41.001Z,4.40
2018-11-12T22:34:13.011Z,4.70
2018-11-12T22:36:44.110Z,4.30
2018-11-12T22:39:15.329Z,4.33
2018-11-12T22:41:46.416Z,4.10
2018-11-12T22:44:17.775Z,4.03
2018-11-12T22:46:48.797Z,3.67
2018-11-12T22:49:19.889Z,3.77
2018-11-12T22:51:51.867Z,3.80
2018-11-12T22:54:27.408Z,3.77
2018-11-12T22:56:58.768Z,3.90
2018-11-12T22:59:31.663Z,4.00
2018-11-12T23:02:04.618Z,4.00
2018-11-12T23:04:35.802Z,3.97
2018-11-12T23:07:07.161Z,4.40
2018-11-12T23:09:39.366Z,3.97
2018-11-12T23:12:11.336Z,3.50
2018-11-12T23:14:42.748Z,3.60
2018-11-12T23:17:13.970Z,3.40
2018-11-12T23:19:45.629Z,3.60
2018-11-12T23:22:16.904Z,3.60
2018-11-12T23:24:48.314Z,3.13
2018-11-12T23:27:20.085Z,3.27
2018-11-12T23:29:52.165Z,4.10
2018-11-12T23:32:23.397Z,3.63
2018-11-12T23:34:54.777Z,5.20
2018-11-12T23:37:26.818Z,3.50
2018-11-12T23:39:58.965Z,4.43
2018-11-12T23:42:30.824Z,4.50
2018-11-12T23:45:02.285Z,5.83
2018-11-12T23:47:33.979Z,5.17
2018-11-12T23:50:08.410Z,5.67
2018-11-12T23:52:39.794Z,10.87
2018-11-12T23:55:13.822Z,10.90
2018-11-12T23:57:46.639Z,5.63
